sensor_id;sensor_type;location;lat;lon;timestamp;pressure;altitude;pressure_sealevel;temperature;humidity
83152;BME280;73381;58.502;8.624;2024-03-07T00:01:51;102199.69;;;-0.09;79.77
83152;BME280;73381;58.502;8.624;2024-03-07T00:04:53;102165.16;;;-0.25;79.30
83152;BME280;73381;58.502;8.624;2024-03-07T00:08:00;101889.31;;;-2.03;79.22
83152;BME280;73381;58.502;8.624;2024-03-07T00:11:06;101998.75;;;-1.37;79.66
83152;BME280;73381;58.502;8.624;2024-03-07T00:14:12;102199.69;;;-0.15;79.92
83152;BME280;73381;58.502;8.624;2024-03-07T00:21:05;102160.81;;;-0.29;79.22
83152;BME280;73381;58.502;8.624;2024-03-07T00:24:07;102168.63;;;-0.27;79.83
83152;BME280;73381;58.502;8.624;2024-03-07T00:27:09;102149.59;;;-0.33;79.54
83152;BME280;73381;58.502;8.624;2024-03-07T00:30:11;102046.13;;;-0.95;79.61
83152;BME280;73381;58.502;8.624;2024-03-07T00:36:27;102179.00;;;-0.31;79.97
83152;BME280;73381;58.502;8.624;2024-03-07T00:39:30;102193.66;;;-0.16;79.27
83152;BME280;73381;58.502;8.624;2024-03-07T00:42:32;102132.38;;;-0.49;78.61
83152;BME280;73381;58.502;8.624;2024-03-07T00:45:34;102194.53;;;-0.20;79.08
83152;BME280;73381;58.502;8.624;2024-03-07T00:48:36;102207.50;;;-0.15;79.08
83152;BME280;73381;58.502;8.624;2024-03-07T00:51:39;102164.34;;;-0.36;80.16
83152;BME280;73381;58.502;8.624;2024-03-07T00:54:42;102185.88;;;-0.20;79.96
83152;BME280;73381;58.502;8.624;2024-03-07T00:57:44;102209.22;;;-0.13;79.23
83152;BME280;73381;58.502;8.624;2024-03-07T01:00:46;102174.69;;;-0.27;79.47
83152;BME280;73381;58.502;8.624;2024-03-07T01:03:48;102202.28;;;-0.11;79.39
83152;BME280;73381;58.502;8.624;2024-03-07T01:06:54;102205.75;;;-0.15;78.97
83152;BME280;73381;58.502;8.624;2024-03-07T01:09:58;101767.88;;;-2.97;79.38
83152;BME280;73381;58.502;8.624;2024-03-07T01:13:07;101688.63;;;-3.24;80.05
83152;BME280;73381;58.502;8.624;2024-03-07T01:16:09;101892.72;;;-1.99;79.94
83152;BME280;73381;58.502;8.624;2024-03-07T01:19:11;101984.03;;;-1.30;79.78
83152;BME280;73381;58.502;8.624;2024-03-07T01:22:14;102141.81;;;-0.28;79.21
83152;BME280;73381;58.502;8.624;2024-03-07T01:25:16;102112.50;;;-0.51;79.45
83152;BME280;73381;58.502;8.624;2024-03-07T01:28:18;102153.91;;;-0.32;80.48
83152;BME280;73381;58.502;8.624;2024-03-07T01:31:20;102166.03;;;-0.32;80.52
83152;BME280;73381;58.502;8.624;2024-03-07T01:34:31;102160.03;;;-0.40;80.64
83152;BME280;73381;58.502;8.624;2024-03-07T01:40:40;102191.03;;;-0.14;80.36
83152;BME280;73381;58.502;8.624;2024-03-07T01:43:43;102152.22;;;-0.34;79.56
83152;BME280;73381;58.502;8.624;2024-03-07T01:46:45;102157.38;;;-0.28;81.17
83152;BME280;73381;58.502;8.624;2024-03-07T01:49:47;102186.72;;;-0.17;81.97
83152;BME280;73381;58.502;8.624;2024-03-07T01:52:50;102181.59;;;-0.23;82.30
83152;BME280;73381;58.502;8.624;2024-03-07T01:55:53;102160.03;;;-0.37;82.48
83152;BME280;73381;58.502;8.624;2024-03-07T01:58:56;102177.28;;;-0.27;81.87
83152;BME280;73381;58.502;8.624;2024-03-07T02:02:00;102187.66;;;-0.27;82.57
83152;BME280;73381;58.502;8.624;2024-03-07T02:05:02;102161.72;;;-0.33;82.47
83152;BME280;73381;58.502;8.624;2024-03-07T02:08:04;102173.81;;;-0.26;81.75
83152;BME280;73381;58.502;8.624;2024-03-07T02:11:11;102151.38;;;-0.38;81.44
83152;BME280;73381;58.502;8.624;2024-03-07T02:14:13;102095.28;;;-0.65;81.72
83152;BME280;73381;58.502;8.624;2024-03-07T02:17:15;102176.31;;;-0.11;80.45
83152;BME280;73381;58.502;8.624;2024-03-07T02:20:18;102143.53;;;-0.30;80.22
83152;BME280;73381;58.502;8.624;2024-03-07T02:23:21;102165.13;;;-0.22;80.72
83152;BME280;73381;58.502;8.624;2024-03-07T02:26:23;102167.72;;;-0.20;80.70
83152;BME280;73381;58.502;8.624;2024-03-07T02:29:25;102175.50;;;-0.19;81.59
83152;BME280;73381;58.502;8.624;2024-03-07T02:32:27;102077.19;;;-0.80;81.46
83152;BME280;73381;58.502;8.624;2024-03-07T02:35:29;102078.88;;;-0.76;81.47
83152;BME280;73381;58.502;8.624;2024-03-07T02:38:32;101979.78;;;-1.40;82.20
83152;BME280;73381;58.502;8.624;2024-03-07T02:41:34;102141.88;;;-0.40;81.78
83152;BME280;73381;58.502;8.624;2024-03-07T02:44:36;102163.44;;;-0.26;81.16
83152;BME280;73381;58.502;8.624;2024-03-07T02:47:40;102131.50;;;-0.46;82.24
83152;BME280;73381;58.502;8.624;2024-03-07T02:50:55;102129.78;;;-0.47;82.04
83152;BME280;73381;58.502;8.624;2024-03-07T02:53:58;102165.16;;;-0.26;81.35
83152;BME280;73381;58.502;8.624;2024-03-07T02:57:00;102148.78;;;-0.39;81.74
83152;BME280;73381;58.502;8.624;2024-03-07T03:10:04;102165.13;;;-0.22;82.60
83152;BME280;73381;58.502;8.624;2024-03-07T03:13:06;102074.53;;;-0.74;81.63
83152;BME280;73381;58.502;8.624;2024-03-07T03:16:08;102161.66;;;-0.22;81.68
83152;BME280;73381;58.502;8.624;2024-03-07T03:19:10;102159.91;;;-0.19;81.89
83152;BME280;73381;58.502;8.624;2024-03-07T03:22:12;102153.00;;;-0.21;81.79
83152;BME280;73381;58.502;8.624;2024-03-07T03:28:32;102101.28;;;-0.58;82.56
83152;BME280;73381;58.502;8.624;2024-03-07T03:31:34;102134.88;;;-0.26;81.79
83152;BME280;73381;58.502;8.624;2024-03-07T03:34:36;102146.91;;;-0.16;82.02
83152;BME280;73381;58.502;8.624;2024-03-07T03:37:44;102052.91;;;-0.71;81.58
83152;BME280;73381;58.502;8.624;2024-03-07T03:40:46;102150.44;;;-0.24;81.73
83152;BME280;73381;58.502;8.624;2024-03-07T03:43:50;102146.97;;;-0.25;82.61
83152;BME280;73381;58.502;8.624;2024-03-07T03:46:53;102144.41;;;-0.28;83.07
83152;BME280;73381;58.502;8.624;2024-03-07T03:49:57;102119.41;;;-0.47;82.50
83152;BME280;73381;58.502;8.624;2024-03-07T03:53:04;102084.06;;;-0.74;82.39
83152;BME280;73381;58.502;8.624;2024-03-07T03:56:10;102115.94;;;-0.49;83.30
83152;BME280;73381;58.502;8.624;2024-03-07T04:02:30;102053.84;;;-0.80;83.11
83152;BME280;73381;58.502;8.624;2024-03-07T04:05:39;101692.97;;;-3.19;81.71
83152;BME280;73381;58.502;8.624;2024-03-07T04:08:51;101688.63;;;-3.11;81.53
83152;BME280;73381;58.502;8.624;2024-03-07T04:14:57;101621.50;;;-3.29;81.96
83152;BME280;73381;58.502;8.624;2024-03-07T04:18:01;101977.94;;;-1.18;82.34
83152;BME280;73381;58.502;8.624;2024-03-07T04:21:03;102054.66;;;-0.67;81.61
83152;BME280;73381;58.502;8.624;2024-03-07T04:24:05;102149.50;;;-0.17;82.29
83152;BME280;73381;58.502;8.624;2024-03-07T04:27:14;102146.06;;;-0.19;82.00
83152;BME280;73381;58.502;8.624;2024-03-07T04:30:16;102102.13;;;-0.51;82.68
83152;BME280;73381;58.502;8.624;2024-03-07T04:33:19;102115.06;;;-0.41;82.57
83152;BME280;73381;58.502;8.624;2024-03-07T04:36:21;102121.91;;;-0.34;82.50
83152;BME280;73381;58.502;8.624;2024-03-07T04:39:35;102096.91;;;-0.42;81.56
83152;BME280;73381;58.502;8.624;2024-03-07T04:42:37;102135.75;;;-0.27;83.24
83152;BME280;73381;58.502;8.624;2024-03-07T04:45:39;102137.41;;;-0.18;82.53
83152;BME280;73381;58.502;8.624;2024-03-07T04:48:42;102142.56;;;-0.09;81.63
83152;BME280;73381;58.502;8.624;2024-03-07T04:51:44;102136.53;;;-0.16;82.10
83152;BME280;73381;58.502;8.624;2024-03-07T04:57:50;101690.31;;;-2.81;82.46
83152;BME280;73381;58.502;8.624;2024-03-07T05:00:54;102126.19;;;-0.22;82.13
83152;BME280;73381;58.502;8.624;2024-03-07T05:07:29;102124.44;;;-0.21;82.11
83152;BME280;73381;58.502;8.624;2024-03-07T05:10:31;102127.06;;;-0.24;82.19
83152;BME280;73381;58.502;8.624;2024-03-07T05:13:33;102097.72;;;-0.36;81.79
83152;BME280;73381;58.502;8.624;2024-03-07T05:16:35;102113.28;;;-0.34;81.76
83152;BME280;73381;58.502;8.624;2024-03-07T05:19:39;102121.91;;;-0.27;81.85
83152;BME280;73381;58.502;8.624;2024-03-07T05:22:42;102121.91;;;-0.27;81.77
83152;BME280;73381;58.502;8.624;2024-03-07T05:25:47;102096.88;;;-0.41;81.93
83152;BME280;73381;58.502;8.624;2024-03-07T05:28:49;102083.97;;;-0.53;82.35
83152;BME280;73381;58.502;8.624;2024-03-07T05:31:51;102121.91;;;-0.31;82.29
83152;BME280;73381;58.502;8.624;2024-03-07T05:34:53;102122.75;;;-0.30;82.05
83152;BME280;73381;58.502;8.624;2024-03-07T05:41:08;102106.41;;;-0.40;82.68
83152;BME280;73381;58.502;8.624;2024-03-07T05:44:10;102103.81;;;-0.44;82.27
83152;BME280;73381;58.502;8.624;2024-03-07T05:47:21;102118.47;;;-0.34;81.92
83152;BME280;73381;58.502;8.624;2024-03-07T05:50:25;102069.34;;;-0.68;81.58
83152;BME280;73381;58.502;8.624;2024-03-07T05:53:29;101621.50;;;-3.32;81.96
83152;BME280;73381;58.502;8.624;2024-03-07T05:56:32;102011.63;;;-1.14;82.48
83152;BME280;73381;58.502;8.624;2024-03-07T05:59:34;102128.03;;;-0.42;82.41
83152;BME280;73381;58.502;8.624;2024-03-07T06:02:39;101643.88;;;-3.22;81.89
83152;BME280;73381;58.502;8.624;2024-03-07T06:05:41;102123.69;;;-0.37;82.66
83152;BME280;73381;58.502;8.624;2024-03-07T06:08:43;102127.16;;;-0.38;82.08
83152;BME280;73381;58.502;8.624;2024-03-07T06:11:47;102123.69;;;-0.40;82.50
83152;BME280;73381;58.502;8.624;2024-03-07T06:14:50;102131.50;;;-0.40;82.14
83152;BME280;73381;58.502;8.624;2024-03-07T06:17:55;102135.81;;;-0.39;82.40
83152;BME280;73381;58.502;8.624;2024-03-07T06:20:58;101978.03;;;-1.41;82.47
83152;BME280;73381;58.502;8.624;2024-03-07T06:24:00;102109.16;;;-0.78;82.69
83152;BME280;73381;58.502;8.624;2024-03-07T06:27:04;102127.25;;;-0.63;82.82
83152;BME280;73381;58.502;8.624;2024-03-07T06:30:07;102136.75;;;-0.54;81.96
83152;BME280;73381;58.502;8.624;2024-03-07T06:33:09;102144.50;;;-0.51;83.13
83152;BME280;73381;58.502;8.624;2024-03-07T06:36:12;102131.53;;;-0.52;82.95
83152;BME280;73381;58.502;8.624;2024-03-07T06:39:15;102127.22;;;-0.53;82.32
83152;BME280;73381;58.502;8.624;2024-03-07T06:42:19;102145.38;;;-0.52;82.78
83152;BME280;73381;58.502;8.624;2024-03-07T06:45:21;102126.41;;;-0.65;83.32
83152;BME280;73381;58.502;8.624;2024-03-07T06:48:22;102140.25;;;-0.67;83.05
83152;BME280;73381;58.502;8.624;2024-03-07T06:51:24;102141.13;;;-0.73;83.37
83152;BME280;73381;58.502;8.624;2024-03-07T06:54:27;102142.00;;;-0.77;83.47
83152;BME280;73381;58.502;8.624;2024-03-07T06:57:30;102092.84;;;-1.09;83.14
83152;BME280;73381;58.502;8.624;2024-03-07T07:00:32;102143.75;;;-0.86;83.46
83152;BME280;73381;58.502;8.624;2024-03-07T07:03:34;102129.09;;;-1.01;83.11
83152;BME280;73381;58.502;8.624;2024-03-07T07:06:36;102106.69;;;-1.17;83.46
83152;BME280;73381;58.502;8.624;2024-03-07T07:09:37;102144.66;;;-0.94;83.76
83152;BME280;73381;58.502;8.624;2024-03-07T07:12:44;102144.66;;;-0.94;83.72
83152;BME280;73381;58.502;8.624;2024-03-07T07:15:46;102147.25;;;-0.95;84.20
83152;BME280;73381;58.502;8.624;2024-03-07T07:18:48;102136.00;;;-0.99;84.26
83152;BME280;73381;58.502;8.624;2024-03-07T07:21:51;102148.97;;;-1.00;84.41
83152;BME280;73381;58.502;8.624;2024-03-07T07:25:00;102142.06;;;-1.01;84.37
83152;BME280;73381;58.502;8.624;2024-03-07T07:28:11;102137.75;;;-1.04;84.57
83152;BME280;73381;58.502;8.624;2024-03-07T07:34:37;102079.06;;;-1.29;83.83
83152;BME280;73381;58.502;8.624;2024-03-07T07:37:41;102128.28;;;-1.06;83.83
83152;BME280;73381;58.502;8.624;2024-03-07T07:40:55;101823.03;;;-2.77;83.37
83152;BME280;73381;58.502;8.624;2024-03-07T07:44:01;102035.97;;;-1.71;83.67
83152;BME280;73381;58.502;8.624;2024-03-07T07:47:04;101891.94;;;-2.46;82.99
83152;BME280;73381;58.502;8.624;2024-03-07T07:53:16;102138.59;;;-0.88;83.44
83152;BME280;73381;58.502;8.624;2024-03-07T07:59:29;101864.38;;;-2.37;82.88
83152;BME280;73381;58.502;8.624;2024-03-07T08:02:38;101863.50;;;-2.56;83.07
83152;BME280;73381;58.502;8.624;2024-03-07T08:05:45;101627.56;;;-3.73;82.85
83152;BME280;73381;58.502;8.624;2024-03-07T08:08:51;101730.00;;;-3.37;83.16
83152;BME280;73381;58.502;8.624;2024-03-07T08:11:53;102096.22;;;-0.90;82.87
83152;BME280;73381;58.502;8.624;2024-03-07T08:14:56;102140.22;;;-0.61;83.16
83152;BME280;73381;58.502;8.624;2024-03-07T08:17:58;102099.66;;;-0.79;82.82
83152;BME280;73381;58.502;8.624;2024-03-07T08:21:01;102108.25;;;-0.68;83.46
83152;BME280;73381;58.502;8.624;2024-03-07T08:24:03;101973.75;;;-1.47;82.86
83152;BME280;73381;58.502;8.624;2024-03-07T08:27:05;102133.19;;;-0.36;83.01
83152;BME280;73381;58.502;8.624;2024-03-07T08:30:10;102092.59;;;-0.49;83.45
83152;BME280;73381;58.502;8.624;2024-03-07T08:33:12;102110.66;;;-0.31;82.92
83152;BME280;73381;58.502;8.624;2024-03-07T08:36:14;102133.06;;;-0.12;82.20
83152;BME280;73381;58.502;8.624;2024-03-07T08:39:16;102031.22;;;-0.56;82.30
83152;BME280;73381;58.502;8.624;2024-03-07T08:42:18;102124.19;;;0.14;81.27
83152;BME280;73381;58.502;8.624;2024-03-07T08:45:21;102122.38;;;0.25;80.52
83152;BME280;73381;58.502;8.624;2024-03-07T08:48:27;102093.88;;;0.17;79.55
83152;BME280;73381;58.502;8.624;2024-03-07T08:51:33;102059.38;;;0.03;79.30
83152;BME280;73381;58.502;8.624;2024-03-07T08:54:35;101859.47;;;-1.04;77.95
83152;BME280;73381;58.502;8.624;2024-03-07T08:57:38;102116.66;;;0.86;78.39
83152;BME280;73381;58.502;8.624;2024-03-07T09:00:41;101929.69;;;-0.14;77.64
83152;BME280;73381;58.502;8.624;2024-03-07T09:06:56;102111.78;;;1.31;76.25
83152;BME280;73381;58.502;8.624;2024-03-07T09:09:58;101959.28;;;0.51;75.22
83152;BME280;73381;58.502;8.624;2024-03-07T09:13:06;102105.50;;;1.47;74.07
83152;BME280;73381;58.502;8.624;2024-03-07T09:16:10;102111.50;;;1.52;72.34
83152;BME280;73381;58.502;8.624;2024-03-07T09:19:11;102079.50;;;1.45;73.62
83152;BME280;73381;58.502;8.624;2024-03-07T09:22:13;102073.34;;;1.51;71.33
83152;BME280;73381;58.502;8.624;2024-03-07T09:25:20;102100.78;;;1.75;71.69
83152;BME280;73381;58.502;8.624;2024-03-07T09:28:21;102107.81;;;1.68;70.66
83152;BME280;73381;58.502;8.624;2024-03-07T09:31:25;102073.09;;;1.68;71.75
83152;BME280;73381;58.502;8.624;2024-03-07T09:34:27;102027.22;;;1.59;68.87
83152;BME280;73381;58.502;8.624;2024-03-07T09:37:29;102099.56;;;1.99;70.08
83152;BME280;73381;58.502;8.624;2024-03-07T09:40:31;101957.53;;;1.19;69.62
83152;BME280;73381;58.502;8.624;2024-03-07T09:43:39;102084.69;;;2.05;70.96
83152;BME280;73381;58.502;8.624;2024-03-07T09:50:12;102086.88;;;2.31;68.50
83152;BME280;73381;58.502;8.624;2024-03-07T09:56:30;101894.91;;;1.30;68.27
83152;BME280;73381;58.502;8.624;2024-03-07T09:59:35;101582.53;;;-0.69;66.69
83152;BME280;73381;58.502;8.624;2024-03-07T10:02:41;101950.22;;;1.95;66.48
83152;BME280;73381;58.502;8.624;2024-03-07T10:15:31;101965.41;;;2.21;65.60
83152;BME280;73381;58.502;8.624;2024-03-07T10:18:41;101939.56;;;2.09;64.37
83152;BME280;73381;58.502;8.624;2024-03-07T10:21:43;102063.97;;;2.93;64.96
83152;BME280;73381;58.502;8.624;2024-03-07T10:24:53;102061.34;;;2.96;64.42
83152;BME280;73381;58.502;8.624;2024-03-07T10:27:57;102053.25;;;3.07;64.03
83152;BME280;73381;58.502;8.624;2024-03-07T10:34:18;102043.50;;;3.17;64.12
83152;BME280;73381;58.502;8.624;2024-03-07T10:37:21;102057.94;;;3.33;64.64
83152;BME280;73381;58.502;8.624;2024-03-07T10:40:28;101957.25;;;2.81;65.27
83152;BME280;73381;58.502;8.624;2024-03-07T10:43:36;101729.03;;;1.40;63.02
83152;BME280;73381;58.502;8.624;2024-03-07T10:46:39;101548.25;;;0.73;62.06
83152;BME280;73381;58.502;8.624;2024-03-07T10:49:53;101603.38;;;0.90;63.05
83152;BME280;73381;58.502;8.624;2024-03-07T10:53:02;101620.53;;;1.43;63.26
83152;BME280;73381;58.502;8.624;2024-03-07T10:56:19;102051.06;;;4.05;63.40
83152;BME280;73381;58.502;8.624;2024-03-07T10:59:25;101854.78;;;3.13;62.73
83152;BME280;73381;58.502;8.624;2024-03-07T11:02:33;101806.22;;;3.06;62.95
83152;BME280;73381;58.502;8.624;2024-03-07T11:09:33;102023.28;;;4.67;62.67
83152;BME280;73381;58.502;8.624;2024-03-07T11:12:47;101960.88;;;4.54;62.49
83152;BME280;73381;58.502;8.624;2024-03-07T11:19:24;102013.09;;;5.17;61.73
83152;BME280;73381;58.502;8.624;2024-03-07T11:28:32;102004.88;;;5.29;61.49
83152;BME280;73381;58.502;8.624;2024-03-07T11:31:37;102013.00;;;5.50;61.20
83152;BME280;73381;58.502;8.624;2024-03-07T11:34:41;101929.66;;;5.05;61.96
83152;BME280;73381;58.502;8.624;2024-03-07T11:44:06;102005.50;;;5.93;62.24
83152;BME280;73381;58.502;8.624;2024-03-07T11:47:22;101945.91;;;5.44;60.41
83152;BME280;73381;58.502;8.624;2024-03-07T11:50:25;102003.97;;;6.13;60.25
83152;BME280;73381;58.502;8.624;2024-03-07T11:56:32;101992.53;;;6.40;60.01
83152;BME280;73381;58.502;8.624;2024-03-07T11:59:35;101990.25;;;6.54;59.56
83152;BME280;73381;58.502;8.624;2024-03-07T12:02:39;101957.19;;;6.50;59.78
83152;BME280;73381;58.502;8.624;2024-03-07T12:08:48;101971.97;;;6.76;58.92
83152;BME280;73381;58.502;8.624;2024-03-07T12:11:50;101946.50;;;6.78;59.42
83152;BME280;73381;58.502;8.624;2024-03-07T12:14:56;101807.44;;;5.83;57.25
83152;BME280;73381;58.502;8.624;2024-03-07T12:17:59;101986.19;;;7.16;59.83
83152;BME280;73381;58.502;8.624;2024-03-07T12:21:05;101587.25;;;4.90;57.37
83152;BME280;73381;58.502;8.624;2024-03-07T12:24:14;101730.63;;;5.81;58.89
83152;BME280;73381;58.502;8.624;2024-03-07T12:32:56;101949.13;;;7.67;57.48
83152;BME280;73381;58.502;8.624;2024-03-07T12:36:11;101943.28;;;7.81;56.67
83152;BME280;73381;58.502;8.624;2024-03-07T12:39:27;101948.09;;;7.92;56.06
83152;BME280;73381;58.502;8.624;2024-03-07T12:42:40;101837.38;;;7.37;57.64
83152;BME280;73381;58.502;8.624;2024-03-07T12:45:49;101505.31;;;5.11;55.50
83152;BME280;73381;58.502;8.624;2024-03-07T12:51:55;101933.16;;;8.33;57.81
83152;BME280;73381;58.502;8.624;2024-03-07T12:54:57;101935.13;;;8.28;55.84
83152;BME280;73381;58.502;8.624;2024-03-07T13:01:03;101922.75;;;8.50;53.65
83152;BME280;73381;58.502;8.624;2024-03-07T13:04:07;101838.47;;;7.92;53.49
83152;BME280;73381;58.502;8.624;2024-03-07T13:07:09;101919.22;;;8.70;54.56
83152;BME280;73381;58.502;8.624;2024-03-07T13:10:11;101726.47;;;7.49;55.02
83152;BME280;73381;58.502;8.624;2024-03-07T13:13:20;101657.72;;;7.19;54.13
83152;BME280;73381;58.502;8.624;2024-03-07T13:16:23;101902.03;;;8.99;54.37
83152;BME280;73381;58.502;8.624;2024-03-07T13:22:43;101898.16;;;9.25;53.07
83152;BME280;73381;58.502;8.624;2024-03-07T13:25:45;101437.06;;;6.61;52.34
83152;BME280;73381;58.502;8.624;2024-03-07T13:32:11;101886.06;;;9.57;51.16
83152;BME280;73381;58.502;8.624;2024-03-07T13:38:29;101841.09;;;9.24;52.20
83152;BME280;73381;58.502;8.624;2024-03-07T13:41:31;101484.81;;;7.08;52.26
83152;BME280;73381;58.502;8.624;2024-03-07T13:44:34;101827.06;;;9.23;53.59
83152;BME280;73381;58.502;8.624;2024-03-07T14:37:23;101765.00;;;9.68;51.33
83152;BME280;73381;58.502;8.624;2024-03-07T14:57:32;101797.00;;;11.21;49.94
83152;BME280;73381;58.502;8.624;2024-03-07T15:26:44;101607.59;;;10.32;49.41
83152;BME280;73381;58.502;8.624;2024-03-07T15:33:03;101431.19;;;9.48;47.29
83152;BME280;73381;58.502;8.624;2024-03-07T15:36:06;101626.47;;;11.00;46.85
83152;BME280;73381;58.502;8.624;2024-03-07T15:42:37;101801.41;;;12.09;55.58
83152;BME280;73381;58.502;8.624;2024-03-07T15:45:42;101433.25;;;10.03;49.50
83152;BME280;73381;58.502;8.624;2024-03-07T15:48:44;101527.03;;;10.69;50.75
83152;BME280;73381;58.502;8.624;2024-03-07T15:51:47;101765.09;;;12.26;46.97
83152;BME280;73381;58.502;8.624;2024-03-07T15:54:48;101756.88;;;12.16;46.66
83152;BME280;73381;58.502;8.624;2024-03-07T15:57:53;101738.56;;;11.99;53.02
83152;BME280;73381;58.502;8.624;2024-03-07T16:00:55;101752.63;;;12.13;49.79
83152;BME280;73381;58.502;8.624;2024-03-07T16:03:57;101496.72;;;10.46;44.19
83152;BME280;73381;58.502;8.624;2024-03-07T16:06:59;101581.94;;;10.64;43.50
83152;BME280;73381;58.502;8.624;2024-03-07T16:10:00;101747.19;;;11.29;43.05
83152;BME280;73381;58.502;8.624;2024-03-07T16:13:08;101740.31;;;11.11;45.24
83152;BME280;73381;58.502;8.624;2024-03-07T16:16:10;101740.72;;;10.89;44.48
83152;BME280;73381;58.502;8.624;2024-03-07T16:19:12;101743.75;;;10.67;46.94
83152;BME280;73381;58.502;8.624;2024-03-07T16:22:14;101722.22;;;10.59;50.50
83152;BME280;73381;58.502;8.624;2024-03-07T16:25:17;101556.22;;;9.60;50.97
83152;BME280;73381;58.502;8.624;2024-03-07T16:28:21;101738.38;;;11.15;47.25
83152;BME280;73381;58.502;8.624;2024-03-07T16:31:23;101724.44;;;11.11;50.23
83152;BME280;73381;58.502;8.624;2024-03-07T16:34:24;101733.09;;;11.29;50.88
83152;BME280;73381;58.502;8.624;2024-03-07T16:37:26;101733.38;;;11.39;46.18
83152;BME280;73381;58.502;8.624;2024-03-07T16:43:38;101735.44;;;10.89;52.67
83152;BME280;73381;58.502;8.624;2024-03-07T16:46:40;101308.09;;;8.09;50.84
83152;BME280;73381;58.502;8.624;2024-03-07T16:49:42;101368.16;;;8.16;51.21
83152;BME280;73381;58.502;8.624;2024-03-07T16:52:45;101394.53;;;7.82;52.59
83152;BME280;73381;58.502;8.624;2024-03-07T16:59:08;101525.94;;;8.00;51.57
83152;BME280;73381;58.502;8.624;2024-03-07T17:08:45;101754.31;;;8.30;58.28
83152;BME280;73381;58.502;8.624;2024-03-07T17:21:36;101744.66;;;7.13;57.33
83152;BME280;73381;58.502;8.624;2024-03-07T17:24:38;101747.34;;;6.91;58.51
83152;BME280;73381;58.502;8.624;2024-03-07T17:27:40;101563.78;;;5.35;59.00
83152;BME280;73381;58.502;8.624;2024-03-07T17:30:45;101755.56;;;6.38;60.05
83152;BME280;73381;58.502;8.624;2024-03-07T17:53:54;101338.72;;;1.71;63.61
83152;BME280;73381;58.502;8.624;2024-03-07T17:56:56;101705.88;;;3.80;64.80
83152;BME280;73381;58.502;8.624;2024-03-07T18:03:09;101564.81;;;2.59;66.15
83152;BME280;73381;58.502;8.624;2024-03-07T18:12:38;101380.41;;;0.59;67.69
83152;BME280;73381;58.502;8.624;2024-03-07T18:15:44;101220.94;;;-0.17;67.92
83152;BME280;73381;58.502;8.624;2024-03-07T18:18:46;101413.31;;;1.01;67.19
83152;BME280;73381;58.502;8.624;2024-03-07T18:21:51;101583.34;;;1.77;68.22
83152;BME280;73381;58.502;8.624;2024-03-07T18:24:54;101539.84;;;1.43;68.67
83152;BME280;73381;58.502;8.624;2024-03-07T18:27:58;101734.00;;;2.35;69.22
83152;BME280;73381;58.502;8.624;2024-03-07T18:34:06;101746.09;;;1.99;70.88
83152;BME280;73381;58.502;8.624;2024-03-07T18:37:08;101530.47;;;0.50;71.20
83152;BME280;73381;58.502;8.624;2024-03-07T18:40:13;101778.38;;;1.91;71.94
83152;BME280;73381;58.502;8.624;2024-03-07T18:43:17;101635.41;;;0.92;71.86
83152;BME280;73381;58.502;8.624;2024-03-07T18:46:18;101776.84;;;1.81;72.70
83152;BME280;73381;58.502;8.624;2024-03-07T18:49:22;101252.88;;;-1.61;72.02
83152;BME280;73381;58.502;8.624;2024-03-07T18:52:27;101645.31;;;0.72;72.40
83152;BME280;73381;58.502;8.624;2024-03-07T18:55:29;101304.44;;;-1.46;72.06
83152;BME280;73381;58.502;8.624;2024-03-07T18:58:33;101232.38;;;-1.76;73.06
83152;BME280;73381;58.502;8.624;2024-03-07T19:07:50;101648.28;;;0.49;74.37
83152;BME280;73381;58.502;8.624;2024-03-07T19:10:53;101478.13;;;-0.86;74.28
83152;BME280;73381;58.502;8.624;2024-03-07T19:17:02;101389.22;;;-1.57;74.74
83152;BME280;73381;58.502;8.624;2024-03-07T19:20:04;101360.09;;;-1.76;75.07
83152;BME280;73381;58.502;8.624;2024-03-07T19:26:22;101767.94;;;0.44;75.29
83152;BME280;73381;58.502;8.624;2024-03-07T19:29:23;101768.94;;;0.34;75.69
83152;BME280;73381;58.502;8.624;2024-03-07T19:32:27;101269.09;;;-2.94;75.16
83152;BME280;73381;58.502;8.624;2024-03-07T19:35:29;101770.06;;;0.15;76.22
83152;BME280;73381;58.502;8.624;2024-03-07T19:38:34;101764.19;;;-0.01;76.83
83152;BME280;73381;58.502;8.624;2024-03-07T19:41:35;101783.34;;;-0.08;76.88
83152;BME280;73381;58.502;8.624;2024-03-07T19:44:38;101773.03;;;-0.16;77.60
83152;BME280;73381;58.502;8.624;2024-03-07T19:47:42;101768.78;;;-0.23;77.73
83152;BME280;73381;58.502;8.624;2024-03-07T19:50:44;101766.28;;;-0.32;77.88
83152;BME280;73381;58.502;8.624;2024-03-07T19:53:46;101771.59;;;-0.41;77.82
83152;BME280;73381;58.502;8.624;2024-03-07T19:56:51;101775.16;;;-0.51;78.38
83152;BME280;73381;58.502;8.624;2024-03-07T19:59:54;101774.34;;;-0.56;79.18
83152;BME280;73381;58.502;8.624;2024-03-07T20:02:59;101750.34;;;-0.78;78.47
83152;BME280;73381;58.502;8.624;2024-03-07T20:06:05;101759.94;;;-0.86;78.87
83152;BME280;73381;58.502;8.624;2024-03-07T20:09:07;101743.63;;;-1.01;79.47
83152;BME280;73381;58.502;8.624;2024-03-07T20:12:08;101734.34;;;-1.28;78.98
83152;BME280;73381;58.502;8.624;2024-03-07T20:15:11;101740.41;;;-1.27;79.77
83152;BME280;73381;58.502;8.624;2024-03-07T20:18:15;101779.06;;;-0.98;80.12
83152;BME280;73381;58.502;8.624;2024-03-07T20:21:17;101796.38;;;-1.03;80.23
83152;BME280;73381;58.502;8.624;2024-03-07T20:24:19;101734.47;;;-1.41;80.48
83152;BME280;73381;58.502;8.624;2024-03-07T20:27:22;101775.75;;;-1.12;80.92
83152;BME280;73381;58.502;8.624;2024-03-07T20:30:25;101787.00;;;-1.20;80.89
83152;BME280;73381;58.502;8.624;2024-03-07T20:33:29;101775.06;;;-1.42;80.85
83152;BME280;73381;58.502;8.624;2024-03-07T20:36:30;101730.44;;;-1.82;80.98
83152;BME280;73381;58.502;8.624;2024-03-07T20:39:32;101742.47;;;-1.75;81.23
83152;BME280;73381;58.502;8.624;2024-03-07T20:42:34;101776.06;;;-1.63;80.87
83152;BME280;73381;58.502;8.624;2024-03-07T20:45:36;101777.00;;;-1.77;81.15
83152;BME280;73381;58.502;8.624;2024-03-07T20:48:39;101779.63;;;-1.87;82.20
83152;BME280;73381;58.502;8.624;2024-03-07T20:51:44;101774.47;;;-1.87;81.98